createdAt,value
2019-03-30T00:01:14.213Z,1.10
2019-03-30T00:03:42.541Z,1.10
2019-03-30T00:06:11.232Z,1.10
2019-03-30T00:08:40.440Z,1.00
2019-03-30T00:11:09.258Z,1.00
2019-03-30T00:13:37.727Z,1.00
2019-03-30T00:16:06.194Z,0.90
2019-03-30T00:18:37.437Z,0.90
2019-03-30T00:21:06.034Z,0.90
2019-03-30T00:23:35.406Z,0.90
2019-03-30T00:26:03.923Z,0.90
2019-03-30T00:28:32.326Z,0.90
2019-03-30T00:31:00.813Z,0.90
2019-03-30T00:33:29.157Z,0.80
2019-03-30T00:35:57.799Z,0.80
2019-03-30T00:38:26.449Z,0.80
2019-03-30T00:40:55.214Z,0.80
2019-03-30T00:43:24.065Z,0.70
2019-03-30T00:45:52.399Z,0.70
2019-03-30T00:48:20.950Z,0.70
2019-03-30T00:50:49.164Z,0.70
2019-03-30T00:53:18.490Z,0.60
2019-03-30T00:55:47.194Z,0.60
2019-03-30T00:58:15.600Z,0.60
2019-03-30T01:00:43.805Z,0.60
2019-03-30T01:03:12.033Z,0.60
2019-03-30T01:05:40.622Z,0.60
2019-03-30T01:08:13.028Z,0.60
2019-03-30T01:10:41.490Z,0.60
2019-03-30T01:13:09.881Z,0.60
2019-03-30T01:15:38.230Z,0.60
2019-03-30T01:18:06.717Z,0.50
2019-03-30T01:20:35.326Z,0.60
2019-03-30T01:23:03.809Z,0.50
2019-03-30T01:25:32.387Z,0.40
2019-03-30T01:28:00.944Z,0.50
2019-03-30T01:30:29.170Z,0.40
2019-03-30T01:32:57.833Z,0.40
2019-03-30T01:35:26.919Z,0.40
2019-03-30T01:37:55.589Z,0.40
2019-03-30T01:40:23.897Z,0.40
2019-03-30T01:42:52.059Z,0.40
2019-03-30T01:45:20.404Z,0.40
2019-03-30T01:47:48.784Z,0.30
2019-03-30T01:50:18.239Z,0.30
2019-03-30T01:52:46.664Z,0.30
2019-03-30T01:55:15.015Z,0.20
2019-03-30T01:57:43.450Z,0.20
2019-03-30T02:00:12.766Z,0.20
2019-03-30T02:02:41.513Z,0.10
2019-03-30T02:05:10.282Z,0.10
2019-03-30T02:07:38.860Z,0.00
2019-03-30T02:10:08.365Z,0.00
2019-03-30T02:12:36.695Z,0.00
2019-03-30T02:15:05.766Z,-0.10
2019-03-30T02:17:34.283Z,-0.10
2019-03-30T02:20:03.173Z,0.00
2019-03-30T02:22:31.403Z,0.00
2019-03-30T02:24:59.736Z,0.00
2019-03-30T02:27:28.054Z,0.00
2019-03-30T02:29:56.267Z,0.00
2019-03-30T02:32:24.430Z,0.00
2019-03-30T02:34:52.756Z,-0.10
2019-03-30T02:37:20.927Z,0.00
2019-03-30T02:39:49.520Z,-0.10
2019-03-30T02:42:17.779Z,-0.20
2019-03-30T02:44:46.030Z,-0.20
2019-03-30T02:47:14.238Z,-0.30
2019-03-30T02:49:42.414Z,-0.30
2019-03-30T02:52:10.853Z,-0.30
2019-03-30T02:54:39.162Z,-0.30
2019-03-30T02:57:07.582Z,-0.30
2019-03-30T02:59:36.131Z,-0.40
2019-03-30T03:02:04.504Z,-0.40
2019-03-30T03:04:33.911Z,-0.40
2019-03-30T03:07:02.652Z,-0.40
2019-03-30T03:09:31.148Z,-0.50
2019-03-30T03:11:59.855Z,-0.40
2019-03-30T03:14:28.072Z,-0.50
2019-03-30T03:16:56.304Z,-0.50
2019-03-30T03:19:24.727Z,-0.50
2019-03-30T03:21:52.909Z,-0.50
2019-03-30T03:24:21.485Z,-0.50
2019-03-30T03:26:49.782Z,-0.60
2019-03-30T03:29:18.447Z,-0.60
2019-03-30T03:31:46.653Z,-0.60
2019-03-30T03:34:15.072Z,-0.60
2019-03-30T03:36:44.599Z,-0.60
2019-03-30T03:39:12.883Z,-0.60
2019-03-30T03:41:47.030Z,-0.60
2019-03-30T03:44:15.321Z,-0.50
2019-03-30T03:46:43.740Z,-0.60
2019-03-30T03:49:12.258Z,-0.70
2019-03-30T03:51:40.909Z,-0.50
2019-03-30T03:54:09.597Z,-0.70
2019-03-30T03:56:39.747Z,-0.50
2019-03-30T03:59:13.562Z,-0.80
2019-03-30T04:01:43.669Z,-0.80
2019-03-30T04:04:13.701Z,-0.80
2019-03-30T04:06:44.594Z,-0.80
2019-03-30T04:09:15.503Z,-0.80
2019-03-30T04:11:46.196Z,-0.90
2019-03-30T04:14:17.119Z,-0.90
2019-03-30T04:16:45.515Z,-0.90
2019-03-30T04:19:13.936Z,-0.90
2019-03-30T04:21:44.224Z,-0.90
2019-03-30T04:24:12.345Z,-0.90
2019-03-30T04:26:40.924Z,-0.90
2019-03-30T04:29:28.563Z,-0.90
2019-03-30T04:31:56.745Z,-0.90
2019-03-30T04:34:24.990Z,-0.90
2019-03-30T04:36:53.194Z,-0.90
2019-03-30T04:39:21.804Z,-0.90
2019-03-30T04:41:50.032Z,-0.70
2019-03-30T04:44:18.473Z,-0.80
2019-03-30T04:46:46.691Z,-0.70
2019-03-30T04:49:15.032Z,-0.70
2019-03-30T04:51:56.539Z,-0.60
2019-03-30T04:54:13.515Z,-0.60
2019-03-30T04:56:41.792Z,-0.60
2019-03-30T04:59:11.058Z,-0.50
2019-03-30T05:01:39.337Z,-0.40
2019-03-30T05:04:07.503Z,-0.40
2019-03-30T05:06:36.737Z,-0.30
2019-03-30T05:09:06.094Z,-0.30
2019-03-30T05:11:34.448Z,-0.20
2019-03-30T05:14:02.852Z,-0.10
2019-03-30T05:16:31.504Z,0.00
2019-03-30T05:18:59.638Z,0.20
2019-03-30T05:21:27.988Z,0.20
2019-03-30T05:23:56.358Z,0.30
2019-03-30T05:26:24.613Z,0.40
2019-03-30T05:28:53.223Z,0.60
2019-03-30T05:31:21.497Z,0.70
2019-03-30T05:33:49.679Z,0.80
2019-03-30T05:36:17.943Z,0.90
2019-03-30T05:38:46.326Z,1.20
2019-03-30T05:41:15.019Z,1.20
2019-03-30T05:43:43.286Z,1.40
2019-03-30T05:46:11.541Z,1.50
2019-03-30T05:48:39.939Z,1.70
2019-03-30T05:51:08.085Z,1.80
2019-03-30T05:53:36.231Z,2.20
2019-03-30T05:56:04.563Z,2.20
2019-03-30T05:58:32.944Z,2.40
2019-03-30T06:01:01.087Z,2.60
2019-03-30T06:03:30.513Z,2.90
2019-03-30T06:05:58.790Z,3.10
2019-03-30T06:08:27.137Z,3.40
2019-03-30T06:10:55.349Z,3.70
2019-03-30T06:13:23.615Z,4.00
2019-03-30T06:15:51.821Z,4.40
2019-03-30T06:18:19.960Z,4.80
2019-03-30T06:20:48.237Z,5.30
2019-03-30T06:23:16.525Z,5.80
2019-03-30T06:25:44.700Z,6.30
2019-03-30T06:28:15.699Z,6.70
2019-03-30T06:30:44.109Z,7.30
2019-03-30T06:33:12.718Z,7.90
2019-03-30T06:35:40.861Z,8.40
2019-03-30T06:38:09.332Z,8.80
2019-03-30T06:40:37.600Z,9.40
2019-03-30T06:43:07.761Z,9.90
2019-03-30T06:45:35.917Z,10.40
2019-03-30T06:48:04.259Z,10.80
2019-03-30T06:50:32.549Z,11.30
2019-03-30T06:53:00.741Z,11.80
2019-03-30T06:55:29.087Z,12.20
2019-03-30T06:57:57.434Z,12.60
2019-03-30T07:00:33.228Z,13.10
2019-03-30T07:03:04.900Z,13.60
2019-03-30T07:05:38.270Z,14.00
2019-03-30T07:08:11.078Z,14.50
2019-03-30T07:10:39.601Z,14.90
2019-03-30T07:13:09.362Z,15.30
2019-03-30T07:15:44.870Z,15.80
2019-03-30T07:18:14.128Z,16.20
2019-03-30T07:20:42.705Z,16.60
2019-03-30T07:23:12.909Z,17.10
2019-03-30T07:25:41.301Z,17.50
2019-03-30T07:28:09.742Z,17.80
2019-03-30T07:30:38.127Z,18.20
2019-03-30T07:33:06.814Z,18.60
2019-03-30T07:39:04.009Z,19.40
2019-03-30T07:41:34.083Z,20.10
2019-03-30T07:47:07.528Z,20.80
2019-03-30T07:49:36.216Z,21.40
2019-03-30T07:52:08.217Z,22.00
2019-03-30T07:54:40.496Z,22.60
2019-03-30T07:57:16.828Z,23.20
2019-03-30T07:59:39.306Z,23.50
2019-03-30T08:02:10.721Z,24.10
2019-03-30T08:04:39.703Z,24.60
2019-03-30T08:07:08.571Z,25.20
2019-03-30T08:09:37.328Z,25.70
2019-03-30T08:12:05.946Z,26.30
2019-03-30T08:14:35.519Z,27.00
2019-03-30T08:17:04.047Z,27.60
2019-03-30T08:19:33.736Z,28.20
2019-03-30T08:22:02.551Z,28.80
2019-03-30T08:24:31.290Z,29.30
2019-03-30T08:27:00.744Z,29.70
2019-03-30T08:29:30.280Z,30.20
2019-03-30T08:31:59.450Z,30.20
2019-03-30T08:34:28.266Z,30.80
2019-03-30T08:36:59.264Z,31.20
2019-03-30T08:39:28.803Z,31.60
2019-03-30T08:41:57.185Z,32.40
2019-03-30T08:44:25.554Z,33.10
2019-03-30T08:46:53.870Z,33.90
2019-03-30T08:49:22.290Z,34.70
2019-03-30T08:51:50.664Z,35.50
2019-03-30T08:54:19.109Z,35.90
2019-03-30T08:56:47.295Z,36.10
2019-03-30T08:59:15.905Z,36.60
2019-03-30T09:01:44.205Z,37.20
2019-03-30T09:04:13.922Z,37.60
2019-03-30T09:06:42.327Z,37.90
2019-03-30T09:09:10.890Z,38.40
2019-03-30T09:11:39.513Z,39.00
2019-03-30T09:14:07.883Z,39.40
2019-03-30T09:16:36.938Z,39.70
2019-03-30T09:19:07.773Z,39.80
2019-03-30T09:21:36.217Z,40.00
2019-03-30T09:24:10.118Z,40.70
2019-03-30T09:26:35.472Z,41.40
2019-03-30T09:29:04.114Z,41.10
2019-03-30T09:31:32.576Z,41.20
2019-03-30T09:34:05.573Z,41.90
2019-03-30T09:36:34.534Z,42.60
2019-03-30T09:39:06.296Z,42.90
2019-03-30T09:41:34.810Z,42.90
2019-03-30T09:44:03.792Z,43.30
2019-03-30T09:46:32.419Z,44.10
2019-03-30T09:49:00.870Z,44.80
2019-03-30T09:51:29.144Z,44.50
2019-03-30T09:53:57.490Z,44.60
2019-03-30T09:56:25.949Z,45.30
2019-03-30T09:58:54.495Z,45.90
2019-03-30T10:01:24.475Z,46.20
2019-03-30T10:03:53.260Z,46.90
2019-03-30T10:06:33.484Z,47.80
2019-03-30T10:08:51.894Z,48.70
2019-03-30T10:11:20.203Z,49.20
2019-03-30T10:13:48.418Z,48.30
2019-03-30T10:16:16.656Z,48.70
2019-03-30T10:18:45.087Z,49.30
2019-03-30T10:21:13.343Z,49.70
2019-03-30T10:23:41.748Z,50.30
2019-03-30T10:26:10.043Z,50.90
2019-03-30T10:28:38.345Z,51.20
2019-03-30T10:31:06.563Z,51.40
2019-03-30T10:33:34.720Z,51.80
2019-03-30T10:36:03.234Z,51.40
2019-03-30T10:38:31.746Z,51.70
2019-03-30T10:41:00.247Z,52.20
2019-03-30T10:43:28.566Z,53.20
2019-03-30T10:45:57.264Z,53.80
2019-03-30T10:48:25.880Z,54.40
2019-03-30T10:50:54.596Z,54.40
2019-03-30T10:53:23.098Z,54.50
2019-03-30T10:55:51.567Z,54.60
2019-03-30T10:58:20.363Z,54.80
2019-03-30T11:00:48.539Z,54.70
2019-03-30T11:03:16.873Z,55.00
2019-03-30T11:05:45.849Z,54.20
2019-03-30T11:08:14.273Z,54.80
2019-03-30T11:10:43.082Z,55.40
2019-03-30T11:13:11.670Z,56.00
2019-03-30T11:15:40.321Z,56.20
2019-03-30T11:18:09.315Z,57.00
2019-03-30T11:20:38.328Z,56.80
2019-03-30T11:23:06.854Z,56.40
2019-03-30T11:25:36.031Z,56.60
2019-03-30T11:28:04.540Z,56.90
2019-03-30T11:30:33.494Z,57.20
2019-03-30T11:33:01.844Z,57.40
2019-03-30T11:35:30.735Z,57.70
2019-03-30T11:37:59.167Z,58.10
2019-03-30T11:40:28.936Z,58.00
2019-03-30T11:42:59.104Z,57.80
2019-03-30T11:45:46.865Z,57.80
2019-03-30T11:48:18.673Z,57.00
2019-03-30T11:50:47.093Z,56.90
2019-03-30T11:53:15.389Z,55.00
2019-03-30T11:55:43.704Z,54.00
2019-03-30T11:58:12.454Z,54.60
2019-03-30T12:00:40.950Z,55.00
2019-03-30T12:03:09.262Z,55.00
2019-03-30T12:05:38.209Z,55.70
2019-03-30T12:08:06.567Z,55.50
2019-03-30T12:10:34.939Z,56.00
2019-03-30T12:13:03.300Z,56.50
2019-03-30T12:15:32.104Z,56.90
2019-03-30T12:18:00.458Z,56.90
2019-03-30T12:20:28.801Z,55.80
2019-03-30T12:22:57.910Z,54.40
2019-03-30T12:25:35.285Z,55.20
2019-03-30T12:27:57.536Z,56.00
2019-03-30T12:30:26.331Z,56.50
2019-03-30T12:32:54.812Z,56.50
2019-03-30T12:35:23.358Z,56.40
2019-03-30T12:37:52.095Z,56.70
2019-03-30T12:40:22.149Z,56.40
2019-03-30T12:43:38.894Z,56.20
2019-03-30T12:46:06.564Z,56.20
2019-03-30T12:48:35.279Z,56.00
2019-03-30T12:51:04.343Z,55.50
2019-03-30T12:53:33.191Z,54.90
2019-03-30T12:56:01.927Z,54.00
2019-03-30T12:58:30.545Z,53.60
2019-03-30T13:00:58.861Z,53.40
2019-03-30T13:03:29.652Z,52.60
2019-03-30T13:05:58.069Z,51.80
2019-03-30T13:08:26.386Z,51.10
2019-03-30T13:10:54.837Z,50.70
2019-03-30T13:13:23.297Z,50.00
2019-03-30T13:15:51.950Z,49.80
2019-03-30T13:18:22.155Z,49.70
2019-03-30T13:23:45.755Z,48.70
2019-03-30T13:26:14.904Z,48.20
2019-03-30T13:28:44.057Z,47.60
2019-03-30T13:31:13.690Z,46.80
2019-03-30T13:33:42.346Z,46.40
2019-03-30T13:36:11.869Z,45.90
2019-03-30T13:38:40.780Z,45.50
2019-03-30T13:41:09.613Z,45.00
2019-03-30T13:43:39.971Z,44.10
2019-03-30T13:46:10.694Z,43.20
2019-03-30T13:48:39.691Z,42.30
2019-03-30T13:51:08.573Z,41.60
2019-03-30T13:53:38.157Z,40.90
2019-03-30T13:56:17.193Z,39.60
2019-03-30T13:58:39.776Z,37.80
2019-03-30T14:01:08.152Z,36.20
2019-03-30T14:03:37.567Z,34.80
2019-03-30T14:06:07.234Z,33.80
2019-03-30T14:08:35.446Z,32.80
2019-03-30T14:11:04.713Z,32.00
2019-03-30T14:13:32.973Z,31.20
2019-03-30T14:16:03.838Z,30.50
2019-03-30T14:18:32.769Z,29.90
2019-03-30T14:21:02.771Z,29.30
2019-03-30T14:23:32.534Z,28.70
2019-03-30T14:26:01.384Z,28.20
2019-03-30T14:28:30.968Z,27.90
2019-03-30T14:30:59.276Z,27.50
2019-03-30T14:33:27.697Z,27.10
2019-03-30T14:35:56.283Z,26.70
2019-03-30T14:38:24.686Z,26.40
2019-03-30T14:40:52.991Z,26.00
2019-03-30T14:43:21.364Z,25.60
2019-03-30T14:45:50.087Z,25.20
2019-03-30T14:51:46.433Z,24.70
2019-03-30T14:54:15.228Z,24.40
2019-03-30T14:56:45.719Z,24.20
2019-03-30T14:59:14.518Z,24.00
2019-03-30T15:01:42.883Z,24.00
2019-03-30T15:04:11.543Z,23.80
2019-03-30T15:06:40.228Z,23.60
2019-03-30T15:09:09.770Z,23.40
2019-03-30T15:11:38.721Z,23.40
2019-03-30T15:14:06.997Z,23.20
2019-03-30T15:16:35.687Z,23.10
2019-03-30T15:19:04.041Z,22.90
2019-03-30T15:21:32.612Z,22.70
2019-03-30T15:24:00.978Z,22.50
2019-03-30T15:26:29.432Z,22.40
2019-03-30T15:28:58.247Z,22.30
2019-03-30T15:31:26.968Z,22.20
2019-03-30T15:33:56.011Z,22.10
2019-03-30T15:36:24.565Z,21.80
2019-03-30T15:38:52.927Z,21.70
2019-03-30T15:41:21.235Z,21.50
2019-03-30T15:43:52.134Z,21.30
2019-03-30T15:46:20.844Z,21.20
2019-03-30T15:48:51.927Z,21.00
2019-03-30T15:51:21.269Z,20.90
2019-03-30T15:53:55.257Z,20.60
2019-03-30T15:56:24.886Z,20.70
2019-03-30T15:58:54.582Z,20.50
2019-03-30T16:01:27.388Z,20.20
2019-03-30T16:07:54.737Z,20.30
2019-03-30T16:10:24.060Z,20.00
2019-03-30T16:12:54.258Z,19.80
2019-03-30T16:15:25.106Z,19.60
2019-03-30T16:18:15.713Z,19.40
2019-03-30T16:20:45.919Z,19.20
2019-03-30T16:23:15.538Z,19.10
2019-03-30T16:25:46.003Z,18.90
2019-03-30T16:31:51.224Z,18.60
2019-03-30T16:34:19.571Z,18.40
2019-03-30T16:36:51.119Z,18.30
2019-03-30T16:39:20.211Z,18.30
2019-03-30T16:41:48.676Z,17.90
2019-03-30T16:47:40.992Z,17.60
2019-03-30T16:50:10.066Z,17.40
2019-03-30T16:52:41.098Z,17.20
2019-03-30T16:55:10.184Z,17.00
2019-03-30T16:57:43.542Z,16.90
2019-03-30T17:00:12.368Z,16.70
2019-03-30T17:02:40.927Z,16.50
2019-03-30T17:05:09.879Z,16.30
2019-03-30T17:07:38.971Z,16.10
2019-03-30T17:10:32.614Z,15.90
2019-03-30T17:13:01.265Z,15.70
2019-03-30T17:15:29.534Z,15.50
2019-03-30T17:17:58.478Z,15.20
2019-03-30T17:20:26.740Z,15.00
2019-03-30T17:22:58.586Z,14.80
2019-03-30T17:25:25.369Z,14.60
2019-03-30T17:27:58.538Z,14.40
2019-03-30T17:30:24.434Z,14.20
2019-03-30T17:32:53.095Z,14.10
2019-03-30T17:35:21.742Z,13.90
2019-03-30T17:37:50.546Z,13.70
2019-03-30T17:40:19.126Z,13.70
2019-03-30T17:42:47.372Z,13.40
2019-03-30T17:45:15.739Z,13.30
2019-03-30T17:47:44.234Z,13.20
2019-03-30T17:50:15.892Z,13.10
2019-03-30T17:52:44.739Z,12.90
2019-03-30T17:55:14.095Z,12.70
2019-03-30T17:57:43.033Z,12.60
2019-03-30T18:00:15.959Z,12.60
2019-03-30T18:02:45.162Z,12.40
2019-03-30T18:05:13.804Z,12.30
2019-03-30T18:07:42.302Z,12.10
2019-03-30T18:10:12.126Z,12.00
2019-03-30T18:12:40.510Z,11.80
2019-03-30T18:15:09.918Z,11.70
2019-03-30T18:17:38.316Z,11.60
2019-03-30T18:20:07.587Z,11.50
2019-03-30T18:22:36.132Z,11.30
2019-03-30T18:25:05.748Z,11.20
2019-03-30T18:27:34.534Z,11.00
2019-03-30T18:30:03.494Z,10.90
2019-03-30T18:32:36.238Z,10.80
2019-03-30T18:35:07.550Z,10.60
2019-03-30T18:37:39.655Z,10.50
2019-03-30T18:40:12.524Z,10.40
2019-03-30T18:42:41.841Z,10.30
2019-03-30T18:45:23.840Z,10.20
2019-03-30T18:47:53.682Z,10.20
2019-03-30T18:50:22.495Z,10.00
2019-03-30T18:52:51.832Z,9.90
2019-03-30T18:55:23.408Z,9.80
2019-03-30T18:57:51.817Z,9.70
2019-03-30T19:00:26.313Z,9.60
2019-03-30T19:02:54.486Z,9.50
2019-03-30T19:05:22.820Z,9.30
2019-03-30T19:07:51.863Z,9.20
2019-03-30T19:10:20.602Z,9.10
2019-03-30T19:12:49.505Z,9.00
2019-03-30T19:15:18.734Z,8.90
2019-03-30T19:17:48.379Z,8.80
2019-03-30T19:20:16.864Z,8.70
2019-03-30T19:22:45.639Z,8.60
2019-03-30T19:25:14.307Z,8.50
2019-03-30T19:27:42.499Z,8.50
2019-03-30T19:30:11.246Z,8.40
2019-03-30T19:32:40.122Z,8.40
2019-03-30T19:35:09.308Z,8.30
2019-03-30T19:37:37.582Z,8.30
2019-03-30T19:40:06.524Z,8.20
2019-03-30T19:42:34.750Z,8.00
2019-03-30T19:45:06.907Z,7.90
2019-03-30T19:47:35.674Z,7.80
2019-03-30T19:50:05.829Z,7.70
2019-03-30T19:52:40.195Z,7.50
2019-03-30T19:55:04.917Z,7.40
2019-03-30T19:57:33.535Z,7.30
2019-03-30T20:00:01.997Z,7.20
2019-03-30T20:02:32.465Z,7.10
2019-03-30T20:05:01.806Z,7.00
2019-03-30T20:07:31.670Z,6.90
2019-03-30T20:10:00.513Z,6.80
2019-03-30T20:12:30.340Z,6.80
2019-03-30T20:14:59.063Z,6.70
2019-03-30T20:17:27.487Z,6.60
2019-03-30T20:19:55.909Z,6.60
2019-03-30T20:22:25.774Z,6.50
2019-03-30T20:24:53.965Z,6.50
2019-03-30T20:27:23.282Z,6.40
2019-03-30T20:29:52.726Z,6.30
2019-03-30T20:32:21.391Z,6.40
2019-03-30T20:34:49.645Z,6.20
2019-03-30T20:37:17.926Z,6.20
2019-03-30T20:39:46.321Z,6.10
2019-03-30T20:42:14.874Z,6.10
2019-03-30T20:44:43.160Z,6.00
2019-03-30T20:47:11.529Z,6.00
2019-03-30T20:49:40.090Z,6.10
2019-03-30T20:52:08.665Z,5.80
2019-03-30T20:54:37.146Z,5.80
2019-03-30T20:57:05.602Z,5.70
2019-03-30T20:59:40.227Z,5.70
2019-03-30T21:02:04.461Z,5.60
2019-03-30T21:04:33.328Z,5.60
2019-03-30T21:07:01.622Z,5.50
2019-03-30T21:09:30.151Z,5.50
2019-03-30T21:11:58.359Z,5.40
2019-03-30T21:14:26.667Z,5.40
2019-03-30T21:16:55.183Z,5.30
2019-03-30T21:19:23.428Z,5.20
2019-03-30T21:21:51.871Z,4.90
2019-03-30T21:24:20.106Z,5.10
2019-03-30T21:26:48.536Z,5.00
2019-03-30T21:29:17.271Z,5.00
2019-03-30T21:31:49.096Z,4.90
2019-03-30T21:34:16.195Z,4.90
2019-03-30T21:36:44.702Z,4.80
2019-03-30T21:39:12.896Z,4.70
2019-03-30T21:41:41.587Z,4.60
2019-03-30T21:44:21.436Z,4.60
2019-03-30T21:46:40.120Z,4.50
2019-03-30T21:49:08.457Z,4.50
2019-03-30T21:51:36.667Z,4.40
2019-03-30T21:54:05.215Z,4.40
2019-03-30T21:56:34.395Z,4.30
2019-03-30T21:59:02.963Z,4.30
2019-03-30T22:01:31.435Z,4.30
2019-03-30T22:03:59.688Z,4.30
2019-03-30T22:06:28.125Z,4.20
2019-03-30T22:08:56.640Z,4.10
2019-03-30T22:11:25.019Z,4.00
2019-03-30T22:13:53.535Z,4.00
2019-03-30T22:16:21.846Z,4.00
2019-03-30T22:18:50.536Z,3.90
2019-03-30T22:21:19.117Z,3.90
2019-03-30T22:23:47.431Z,3.80
2019-03-30T22:26:15.903Z,3.70
2019-03-30T22:28:44.188Z,3.70
2019-03-30T22:31:12.741Z,3.60
2019-03-30T22:33:41.056Z,3.60
2019-03-30T22:36:09.492Z,3.50
2019-03-30T22:38:37.776Z,3.50
2019-03-30T22:41:06.216Z,3.40
2019-03-30T22:43:34.388Z,3.40
2019-03-30T22:46:02.831Z,3.40
2019-03-30T22:48:31.362Z,3.30
2019-03-30T22:50:59.859Z,3.30
2019-03-30T22:53:28.284Z,3.30
2019-03-30T22:55:57.496Z,3.30
2019-03-30T22:58:26.110Z,3.20
2019-03-30T23:01:13.206Z,3.10
2019-03-30T23:03:44.617Z,3.10
2019-03-30T23:06:12.896Z,3.00
2019-03-30T23:08:42.006Z,3.00
2019-03-30T23:11:10.333Z,3.00
2019-03-30T23:13:38.618Z,2.90
2019-03-30T23:16:07.031Z,2.90
2019-03-30T23:18:36.065Z,2.90
2019-03-30T23:21:04.434Z,2.90
2019-03-30T23:23:32.755Z,2.80
2019-03-30T23:26:01.192Z,2.80
2019-03-30T23:28:30.428Z,2.80
2019-03-30T23:30:59.058Z,2.80
2019-03-30T23:33:27.352Z,2.80
2019-03-30T23:35:55.945Z,2.80
2019-03-30T23:38:24.381Z,2.80
2019-03-30T23:40:53.426Z,2.70
2019-03-30T23:43:21.729Z,2.70
2019-03-30T23:45:50.194Z,2.60
2019-03-30T23:48:18.966Z,2.60
2019-03-30T23:50:47.489Z,2.60
2019-03-30T23:53:15.936Z,2.60
2019-03-30T23:55:44.215Z,2.50
2019-03-30T23:58:13.624Z,2.70
